Drachten Airfield

EHDR · Friesland, 荷兰

罗盘
风向 的 风向 的 风向 到 风向 060° Drachten Airfield 7/25
风: 7 kt, 3 beaufort

7 kt

2 kt
改变
0 1.000 2.000 3.000 4.000 5.000
FEW 1.800 ft
SCT 2.600 ft
OVC 3.000 ft
SPECI EHLW 022227Z AUTO 06007KT 310V120 9999 FEW018 SCT026 OVC030 03/M00 Q1027 BLU

METAR Drachten Airfield - EHDR

Drachten Airfield是,荷兰中的小机场。 该机场有一条跑道: 7/25. 该领域的国际民航组织标志是EHDR.

这份报告是针对2022年12月2日 23:27, 当地时间在Leeuwarden Air Base进行的。

机场观察

风向为060°,速度为7 kt。 风向在310°和120°之间变化。

可见度为10 km 或者更多。

有几云在1.800 ft的高度, 疏云,零星散落的云朵在2.600 ft的高度 和 乌云密布在3.000 ft的高度。 破损或更高的上限为3.000 ft。

温度为3 °C,阵风为-2 °C。 海平面上的气压为1027 hPa (QNH)。

白天

今天,太阳从08:27升起,在16:21降落。 这适用于Drachten Airfield,世界夏令时可能有所不同。 当地时间与世界标准时间之间的时差为+1 小时。 当前,没有夏令时有效。

公司介绍

我们没有关于这个机场的公司信息。

体会

到Vliegles.nl去找飞行课程,跳伞和其他飞行体验。 浏览页面,了解Drachten Airfield附近所有可用的活动。 你也可以使用搜索功能来寻找你所在地附近的特定飞行课程、跳伞或其他飞行体验。

跑道

Id 标题 侧风 逆风 侧风 %
7/25 074°-254° 2 kt 7 kt 24 %

逆风成分最大的方向会被突出显示,并用于横风计算。 这并不一定意味着这个方向在使用。

乌云

1.800 ft FEW 几云
2.600 ft SCT 疏云,零星散落的云朵
3.000 ft OVC 乌云密布

温度 & 天气

温度 3 °C
露点 0 °C
相对湿度 81%
风寒 -2 °C
Kp-index 2 (0-9)

白天

日出
08:29 (8:50)
中午
12:26
日落
16:22

小工具

你想在你的网站上有一个关于Drachten Airfield的当前航空天气(METAR)的小部件吗?

显示HTML代码

我们和第三方通过cookies跟踪您在我们网站上的互联网行为。如果你继续,我们认为你同意我们的饼干政策